createdAt,value
2022-07-28T00:01:25.043Z,95260.59
2022-07-28T00:04:11.991Z,95266.69
2022-07-28T00:06:45.981Z,95259.91
2022-07-28T00:09:32.774Z,95256.53
2022-07-28T00:12:05.870Z,95246.25
2022-07-28T00:14:52.775Z,95246.31
2022-07-28T00:17:26.032Z,95243.72
2022-07-28T00:20:20.796Z,95250.66
2022-07-28T00:23:14.893Z,95247.28
2022-07-28T00:26:01.805Z,95246.50
2022-07-28T00:28:35.197Z,95252.53
2022-07-28T00:31:21.884Z,95246.50
2022-07-28T00:33:54.877Z,95241.31
2022-07-28T00:36:41.804Z,95245.63
2022-07-28T00:39:21.829Z,95247.28
2022-07-28T00:42:08.800Z,95250.69
2022-07-28T00:44:48.819Z,95243.72
2022-07-28T00:47:42.794Z,95242.03
2022-07-28T00:50:36.830Z,95245.53
2022-07-28T00:53:30.824Z,95236.09
2022-07-28T00:56:17.880Z,95245.66
2022-07-28T00:58:50.929Z,95243.13
2022-07-28T01:01:37.895Z,95247.47
2022-07-28T01:04:12.158Z,95251.88
2022-07-28T01:07:13.826Z,95260.59
2022-07-28T01:10:05.918Z,95257.25
2022-07-28T01:13:02.822Z,95258.06
2022-07-28T01:15:44.031Z,95249.56
2022-07-28T01:18:38.885Z,95251.38
2022-07-28T01:21:24.831Z,95257.44
2022-07-28T01:24:40.869Z,95248.06
2022-07-28T01:27:48.815Z,95250.78
2022-07-28T01:30:59.915Z,95240.63
2022-07-28T01:33:51.934Z,95246.00
2022-07-28T01:36:43.902Z,95244.38
2022-07-28T01:39:18.971Z,95246.19
2022-07-28T01:42:08.848Z,95250.59
2022-07-28T01:44:48.033Z,95247.22
2022-07-28T01:47:39.824Z,95250.78
2022-07-28T01:50:23.864Z,95255.13
2022-07-28T01:53:19.027Z,95251.81
2022-07-28T01:56:16.900Z,95247.66
2022-07-28T01:59:13.862Z,95254.63
2022-07-28T02:02:01.942Z,95251.34
2022-07-28T02:04:44.935Z,95258.28
2022-07-28T02:07:33.874Z,95249.66
2022-07-28T02:10:08.959Z,95258.25
2022-07-28T02:12:57.859Z,95250.44
2022-07-28T02:15:35.029Z,95261.59
2022-07-28T02:18:21.841Z,95260.81
2022-07-28T02:20:55.941Z,95263.41
2022-07-28T02:23:45.929Z,95260.03
2022-07-28T02:26:28.874Z,95264.44
2022-07-28T02:29:47.979Z,95270.53
2022-07-28T02:32:28.114Z,95267.19
2022-07-28T02:35:27.914Z,95260.34
2022-07-28T02:38:35.886Z,95266.47
2022-07-28T02:41:31.900Z,95268.31
2022-07-28T02:44:15.398Z,95264.19
2022-07-28T02:47:05.898Z,95266.78
2022-07-28T02:49:48.878Z,95266.69
2022-07-28T02:52:36.875Z,95269.19
2022-07-28T02:55:10.976Z,95268.28
2022-07-28T02:57:57.875Z,95266.53
2022-07-28T03:00:31.973Z,95264.84
2022-07-28T03:03:18.867Z,95261.44
2022-07-28T03:05:53.015Z,95267.50
2022-07-28T03:08:39.872Z,95264.13
2022-07-28T03:11:24.942Z,95256.50
2022-07-28T03:14:12.218Z,95254.78
2022-07-28T03:16:46.015Z,95254.78
2022-07-28T03:19:39.900Z,95259.09
2022-07-28T03:22:26.934Z,95268.50
2022-07-28T03:25:09.897Z,95275.47
2022-07-28T03:28:05.896Z,95283.22
2022-07-28T03:31:00.957Z,95283.31
2022-07-28T03:33:35.048Z,95284.19
2022-07-28T03:36:25.897Z,95286.84
2022-07-28T03:39:11.796Z,95286.84
2022-07-28T03:41:59.902Z,95280.94
2022-07-28T03:44:34.035Z,95285.41
2022-07-28T03:47:21.905Z,95283.72
2022-07-28T03:49:55.015Z,95290.75
2022-07-28T03:52:41.903Z,95288.28
2022-07-28T03:55:16.020Z,95286.78
2022-07-28T03:58:05.915Z,95293.00
2022-07-28T04:00:38.998Z,95288.81
2022-07-28T04:03:36.609Z,95291.50
2022-07-28T04:06:19.173Z,95299.38
2022-07-28T04:09:05.917Z,95297.81
2022-07-28T04:11:39.038Z,95306.44
2022-07-28T04:14:26.924Z,95305.66
2022-07-28T04:17:00.138Z,95305.78
2022-07-28T04:19:54.001Z,95304.16
2022-07-28T04:22:47.928Z,95313.63
2022-07-28T04:25:41.933Z,95311.16
2022-07-28T04:28:35.925Z,95314.72
2022-07-28T04:31:22.967Z,95319.09
2022-07-28T04:33:56.196Z,95316.53
2022-07-28T04:36:48.908Z,95318.19
2022-07-28T04:39:22.007Z,95320.88
2022-07-28T04:42:08.930Z,95326.13
2022-07-28T04:44:42.518Z,95321.72
2022-07-28T04:47:29.932Z,95325.94
2022-07-28T04:50:04.042Z,95329.19
2022-07-28T04:52:50.955Z,95325.50
2022-07-28T04:55:25.019Z,95328.69
2022-07-28T04:58:12.947Z,95330.19
2022-07-28T05:00:46.095Z,95326.50
2022-07-28T05:03:36.330Z,95319.28
2022-07-28T05:06:16.979Z,95320.81
2022-07-28T05:09:10.944Z,95325.69
2022-07-28T05:11:57.948Z,95326.09
2022-07-28T05:14:38.933Z,95320.56
2022-07-28T05:17:32.983Z,95329.75
2022-07-28T05:20:26.975Z,95331.91
2022-07-28T05:23:21.966Z,95330.81
2022-07-28T05:26:15.980Z,95331.22
2022-07-28T05:29:09.975Z,95324.91
2022-07-28T05:32:16.559Z,95324.53
2022-07-28T05:35:05.961Z,95331.91
2022-07-28T05:37:43.924Z,95333.41
2022-07-28T05:40:30.954Z,95338.06
2022-07-28T05:43:04.054Z,95339.47
2022-07-28T05:45:51.050Z,95345.03
2022-07-28T05:48:33.020Z,95343.91
2022-07-28T05:51:26.973Z,95350.38
2022-07-28T05:54:14.250Z,95352.44
2022-07-28T05:56:54.973Z,95350.16
2022-07-28T05:59:48.963Z,95351.34
2022-07-28T06:02:43.150Z,95345.47
2022-07-28T06:05:29.999Z,95348.47
2022-07-28T06:08:04.061Z,95350.75
2022-07-28T06:11:05.997Z,95358.16
2022-07-28T06:13:39.055Z,95356.19
2022-07-28T06:16:27.075Z,95363.56
2022-07-28T06:19:00.073Z,95359.69
2022-07-28T06:21:46.999Z,95357.09
2022-07-28T06:24:26.998Z,95368.81
2022-07-28T06:27:13.985Z,95368.75
2022-07-28T06:29:54.017Z,95365.00
2022-07-28T06:32:47.982Z,95366.81
2022-07-28T06:35:48.234Z,95369.59
2022-07-28T06:38:39.008Z,95381.84
2022-07-28T06:41:12.091Z,95375.28
2022-07-28T06:43:59.009Z,95384.25
2022-07-28T06:46:42.052Z,95385.19
2022-07-28T06:49:29.082Z,95383.53
2022-07-28T06:52:03.081Z,95386.19
2022-07-28T06:54:50.074Z,95391.66
2022-07-28T06:57:33.635Z,95394.25
2022-07-28T07:00:28.133Z,95399.59
2022-07-28T07:03:15.010Z,95395.19
2022-07-28T07:05:49.007Z,95396.69
2022-07-28T07:08:38.031Z,95400.97
2022-07-28T07:11:18.020Z,95397.69
2022-07-28T07:14:12.056Z,95395.28
2022-07-28T07:17:06.020Z,95402.25
2022-07-28T07:19:53.053Z,95399.44
2022-07-28T07:22:47.036Z,95397.44
2022-07-28T07:25:41.009Z,95389.38
2022-07-28T07:28:28.047Z,95393.59
2022-07-28T07:31:01.188Z,95397.72
2022-07-28T07:33:48.058Z,95402.53
2022-07-28T07:36:21.578Z,95402.16
2022-07-28T07:39:08.017Z,95398.56
2022-07-28T07:41:48.049Z,95395.13
2022-07-28T07:44:35.021Z,95393.03
2022-07-28T07:47:08.184Z,95402.03
2022-07-28T07:49:56.042Z,95393.16
2022-07-28T07:52:43.189Z,95397.16
2022-07-28T07:55:34.451Z,95402.66
2022-07-28T07:58:12.160Z,95401.47
2022-07-28T08:01:00.085Z,95410.31
2022-07-28T08:03:33.152Z,95409.41
2022-07-28T08:06:26.506Z,95414.00
2022-07-28T08:09:01.123Z,95417.78
2022-07-28T08:11:48.066Z,95418.25
2022-07-28T08:14:21.346Z,95424.78
2022-07-28T08:17:08.046Z,95420.50
2022-07-28T08:19:41.643Z,95422.09
2022-07-28T08:22:35.070Z,95423.47
2022-07-28T08:25:29.097Z,95420.34
2022-07-28T08:28:23.073Z,95413.00
2022-07-28T08:31:18.099Z,95424.06
2022-07-28T08:34:31.201Z,95419.56
2022-07-28T08:37:19.065Z,95423.44
2022-07-28T08:39:52.153Z,95422.13
2022-07-28T08:42:50.071Z,95424.34
2022-07-28T08:45:32.506Z,95425.50
2022-07-28T08:48:32.074Z,95418.72
2022-07-28T08:51:19.150Z,95429.13
2022-07-28T08:53:53.185Z,95416.88
2022-07-28T08:56:41.085Z,95415.88
2022-07-28T08:59:22.205Z,95417.59
2022-07-28T09:02:09.163Z,95415.72
2022-07-28T09:04:42.431Z,95423.25
2022-07-28T09:07:34.101Z,95416.22
2022-07-28T09:10:07.364Z,95423.88
2022-07-28T09:12:54.202Z,95416.13
2022-07-28T09:15:27.376Z,95415.47
2022-07-28T09:18:14.127Z,95412.38
2022-07-28T09:20:50.173Z,95417.59
2022-07-28T09:23:55.123Z,95419.75
2022-07-28T09:26:38.127Z,95416.88
2022-07-28T09:29:38.087Z,95414.28
2022-07-28T09:32:27.189Z,95412.59
2022-07-28T09:35:00.179Z,95412.69
2022-07-28T09:37:47.114Z,95413.34
2022-07-28T09:40:28.104Z,95402.94
2022-07-28T09:43:23.125Z,95413.03
2022-07-28T09:46:17.290Z,95413.03
2022-07-28T09:48:56.559Z,95411.19
2022-07-28T09:51:43.118Z,95407.50
2022-07-28T09:54:28.113Z,95401.94
2022-07-28T09:57:24.208Z,95414.53
2022-07-28T10:00:19.115Z,95415.31
2022-07-28T10:02:56.298Z,95411.75
2022-07-28T10:05:50.788Z,95418.06
2022-07-28T10:08:45.247Z,95418.66
2022-07-28T10:11:39.315Z,95420.91
2022-07-28T10:14:23.164Z,95421.75
2022-07-28T10:17:19.134Z,95422.19
2022-07-28T10:20:08.124Z,95418.25
2022-07-28T10:22:49.145Z,95429.75
2022-07-28T10:25:41.132Z,95421.84
2022-07-28T10:28:32.236Z,95410.59
2022-07-28T10:31:24.214Z,95416.91
2022-07-28T10:34:00.593Z,95414.38
2022-07-28T10:36:49.151Z,95407.31
2022-07-28T10:39:26.463Z,95408.75
2022-07-28T10:42:17.147Z,95404.13
2022-07-28T10:44:51.292Z,95410.84
2022-07-28T10:47:38.147Z,95404.19
2022-07-28T10:50:12.227Z,95408.66
2022-07-28T10:52:59.179Z,95399.81
2022-07-28T10:55:57.170Z,95405.03
2022-07-28T10:59:20.218Z,95393.63
2022-07-28T11:02:09.263Z,95397.91
2022-07-28T11:04:52.403Z,95394.38
2022-07-28T11:07:46.172Z,95389.25
2022-07-28T11:10:31.168Z,95394.28
2022-07-28T11:13:51.559Z,95395.63
2022-07-28T11:16:41.233Z,95389.38
2022-07-28T11:19:40.123Z,95383.94
2022-07-28T11:22:41.258Z,95392.94
2022-07-28T11:25:35.178Z,95382.78
2022-07-28T11:28:22.300Z,95381.09
2022-07-28T11:30:58.338Z,95386.22
2022-07-28T11:34:01.186Z,95391.41
2022-07-28T11:37:15.323Z,95390.84
2022-07-28T11:40:03.167Z,95391.03
2022-07-28T11:42:38.321Z,95393.03
2022-07-28T11:45:38.451Z,95393.78
2022-07-28T11:48:23.486Z,95384.31
2022-07-28T11:51:10.171Z,95378.34
2022-07-28T11:54:04.214Z,95382.47
2022-07-28T11:56:58.237Z,95372.81
2022-07-28T11:59:54.276Z,95390.94
2022-07-28T12:02:31.763Z,95388.16
2022-07-28T12:05:20.226Z,95386.91
2022-07-28T12:07:58.550Z,95378.91
2022-07-28T12:10:54.955Z,95377.13
2022-07-28T12:13:33.337Z,95375.22
2022-07-28T12:16:21.298Z,95373.44
2022-07-28T12:19:10.050Z,95373.94
2022-07-28T12:22:06.220Z,95375.44
2022-07-28T12:25:00.216Z,95388.28
2022-07-28T12:27:47.256Z,95379.84
2022-07-28T12:30:40.225Z,95381.00
2022-07-28T12:33:39.266Z,95379.69
2022-07-28T12:36:28.224Z,95380.75
2022-07-28T12:39:02.420Z,95374.03
2022-07-28T12:41:49.255Z,95369.19
2022-07-28T12:44:22.384Z,95373.91
2022-07-28T12:47:11.258Z,95369.84
2022-07-28T12:49:46.411Z,95371.56
2022-07-28T12:52:33.258Z,95361.97
2022-07-28T12:55:06.720Z,95363.00
2022-07-28T12:57:54.223Z,95358.03
2022-07-28T13:00:38.395Z,95353.66
2022-07-28T13:03:31.257Z,95346.94
2022-07-28T13:06:22.252Z,95349.66
2022-07-28T13:09:15.122Z,95360.97
2022-07-28T13:11:56.348Z,95356.72
2022-07-28T13:14:54.234Z,95359.38
2022-07-28T13:18:05.256Z,95358.69
2022-07-28T13:21:05.259Z,95353.69
2022-07-28T13:23:52.247Z,95360.91
2022-07-28T13:26:25.343Z,95347.97
2022-07-28T13:29:14.258Z,95353.44
2022-07-28T13:31:47.486Z,95348.31
2022-07-28T13:34:34.248Z,95344.88
2022-07-28T13:37:07.452Z,95338.66
2022-07-28T13:39:54.906Z,95341.19
2022-07-28T13:42:37.259Z,95343.69
2022-07-28T13:45:31.316Z,95344.47
2022-07-28T13:48:18.247Z,95331.53
2022-07-28T13:50:53.355Z,95334.97
2022-07-28T13:53:44.251Z,95327.16
2022-07-28T13:56:17.350Z,95333.19
2022-07-28T13:59:16.252Z,95329.00
2022-07-28T14:01:49.476Z,95329.00
2022-07-28T14:04:36.305Z,95333.19
2022-07-28T14:07:13.357Z,95330.50
2022-07-28T14:10:07.289Z,95343.53
2022-07-28T14:12:41.423Z,95342.69
2022-07-28T14:15:32.277Z,95335.72
2022-07-28T14:18:12.351Z,95333.13
2022-07-28T14:21:09.270Z,95333.13
2022-07-28T14:23:56.332Z,95332.28
2022-07-28T14:26:36.632Z,95325.38
2022-07-28T14:29:25.147Z,95333.28
2022-07-28T14:32:01.404Z,95328.91
2022-07-28T14:34:48.285Z,95324.47
2022-07-28T14:37:21.403Z,95324.38
2022-07-28T14:40:08.330Z,95333.78
2022-07-28T14:42:41.396Z,95333.63
2022-07-28T14:45:28.325Z,95335.28
2022-07-28T14:48:01.401Z,95337.81
2022-07-28T14:50:48.341Z,95337.03
2022-07-28T14:53:22.284Z,95330.94
2022-07-28T14:56:02.336Z,95329.25
2022-07-28T14:58:42.430Z,95334.53
2022-07-28T15:01:22.374Z,95343.28
2022-07-28T15:04:02.417Z,95342.50
2022-07-28T15:06:42.331Z,95339.97
2022-07-28T15:09:22.335Z,95337.50
2022-07-28T15:12:02.369Z,95335.03
2022-07-28T15:14:56.322Z,95342.13
2022-07-28T15:17:50.335Z,95340.34
2022-07-28T15:20:38.335Z,95333.28
2022-07-28T15:23:13.907Z,95335.91
2022-07-28T15:26:00.339Z,95329.75
2022-07-28T15:28:43.293Z,95324.47
2022-07-28T15:31:37.424Z,95323.53
2022-07-28T15:34:26.325Z,95316.47
2022-07-28T15:37:00.997Z,95312.78
2022-07-28T15:39:47.363Z,95320.59
2022-07-28T15:42:20.447Z,95323.13
2022-07-28T15:45:07.359Z,95324.88
2022-07-28T15:47:40.455Z,95324.88
2022-07-28T15:50:27.359Z,95326.63
2022-07-28T15:53:00.406Z,95326.63
2022-07-28T15:55:51.292Z,95327.47
2022-07-28T15:58:33.357Z,95323.19
2022-07-28T16:01:27.401Z,95324.97
2022-07-28T16:04:14.690Z,95327.66
2022-07-28T16:07:06.891Z,95331.09
2022-07-28T16:09:53.352Z,95339.00
2022-07-28T16:12:33.403Z,95330.34
2022-07-28T16:15:27.403Z,95339.97
2022-07-28T16:18:21.358Z,95337.50
2022-07-28T16:21:15.407Z,95331.53
2022-07-28T16:24:02.374Z,95332.44
2022-07-28T16:26:36.545Z,95338.66
2022-07-28T16:29:23.404Z,95332.88
2022-07-28T16:32:03.389Z,95339.84
2022-07-28T16:34:58.393Z,95336.56
2022-07-28T16:37:53.397Z,95340.94
2022-07-28T16:40:47.409Z,95342.00
2022-07-28T16:43:34.377Z,95340.34
2022-07-28T16:46:07.527Z,95342.94
2022-07-28T16:48:54.439Z,95343.84
2022-07-28T16:51:27.431Z,95344.78
2022-07-28T16:54:14.785Z,95338.00
2022-07-28T16:56:48.462Z,95336.31
2022-07-28T16:59:37.670Z,95335.47
2022-07-28T17:02:28.413Z,95333.81
2022-07-28T17:05:19.422Z,95339.06
2022-07-28T17:07:52.589Z,95346.97
2022-07-28T17:10:39.403Z,95345.34
2022-07-28T17:13:15.510Z,95350.53
2022-07-28T17:16:02.470Z,95352.47
2022-07-28T17:18:35.503Z,95346.41
2022-07-28T17:21:30.423Z,95356.06
2022-07-28T17:24:18.950Z,95357.91
2022-07-28T17:30:00.408Z,95350.28
2022-07-28T17:32:33.953Z,95345.13
2022-07-28T17:35:31.434Z,95353.88
2022-07-28T17:38:08.349Z,95346.16
2022-07-28T17:40:57.407Z,95348.91
2022-07-28T17:43:32.378Z,95349.84
2022-07-28T17:46:27.441Z,95358.56
2022-07-28T17:49:23.461Z,95359.56
2022-07-28T17:52:14.434Z,95360.56
2022-07-28T17:55:13.412Z,95358.97
2022-07-28T17:58:03.419Z,95364.31
2022-07-28T18:00:44.443Z,95362.72
2022-07-28T18:03:59.468Z,95370.69
2022-07-28T18:06:48.429Z,95372.53
2022-07-28T18:09:28.439Z,95370.94
2022-07-28T18:12:23.423Z,95372.78
2022-07-28T18:15:14.497Z,95379.81
2022-07-28T18:17:55.904Z,95383.41
2022-07-28T18:20:49.428Z,95383.47
2022-07-28T18:23:43.411Z,95377.50
2022-07-28T18:26:30.444Z,95381.22
2022-07-28T18:29:03.512Z,95384.78
2022-07-28T18:31:50.538Z,95389.22
2022-07-28T18:34:24.947Z,95383.34
2022-07-28T18:37:12.429Z,95390.31
2022-07-28T18:39:53.411Z,95386.13
2022-07-28T18:42:40.439Z,95393.16
2022-07-28T18:45:21.434Z,95395.88
2022-07-28T18:48:17.423Z,95396.88
2022-07-28T18:51:11.441Z,95397.03
2022-07-28T18:53:58.441Z,95411.03
2022-07-28T18:56:38.447Z,95406.72
2022-07-28T18:59:25.498Z,95405.97
2022-07-28T19:01:58.653Z,95404.44
2022-07-28T19:04:45.508Z,95397.69
2022-07-28T19:07:26.443Z,95400.44
2022-07-28T19:10:20.496Z,95405.84
2022-07-28T19:13:12.291Z,95406.00
2022-07-28T19:15:47.560Z,95412.13
2022-07-28T19:18:34.477Z,95417.38
2022-07-28T19:21:08.273Z,95414.09
2022-07-28T19:23:55.507Z,95419.38
2022-07-28T19:26:28.536Z,95413.41
2022-07-28T19:29:15.509Z,95410.06
2022-07-28T19:31:48.581Z,95413.53
2022-07-28T19:34:36.477Z,95408.56
2022-07-28T19:37:09.556Z,95414.69
2022-07-28T19:39:56.479Z,95418.28
2022-07-28T19:42:38.470Z,95413.22
2022-07-28T19:45:12.589Z,95414.97
2022-07-28T19:48:01.494Z,95410.00
2022-07-28T19:50:45.969Z,95422.31
2022-07-28T19:53:36.868Z,95412.88
2022-07-28T19:56:18.472Z,95418.16
2022-07-28T19:59:12.480Z,95421.81
2022-07-28T20:02:06.550Z,95424.56
2022-07-28T20:04:53.492Z,95410.81
2022-07-28T20:07:26.548Z,95420.44
2022-07-28T20:10:13.502Z,95417.97
2022-07-28T20:12:47.496Z,95421.53
2022-07-28T20:15:34.482Z,95420.72
2022-07-28T20:18:07.551Z,95426.81
2022-07-28T20:20:55.501Z,95429.47
2022-07-28T20:23:28.563Z,95430.38
2022-07-28T20:26:16.488Z,95424.50
2022-07-28T20:28:49.742Z,95427.25
2022-07-28T20:31:37.497Z,95435.16
2022-07-28T20:34:19.633Z,95432.81
2022-07-28T20:37:18.942Z,95430.41
2022-07-28T20:40:20.553Z,95428.94
2022-07-28T20:42:53.628Z,95432.53
2022-07-28T20:45:40.530Z,95431.91
2022-07-28T20:48:14.441Z,95430.34
2022-07-28T20:51:01.494Z,95436.56
2022-07-28T20:53:34.635Z,95431.59
2022-07-28T20:56:21.524Z,95432.63
2022-07-28T20:58:54.624Z,95429.34
2022-07-28T21:01:41.564Z,95434.75
2022-07-28T21:04:22.506Z,95436.63
2022-07-28T21:08:00.603Z,95439.41
2022-07-28T21:10:32.513Z,95447.38
2022-07-28T21:13:19.540Z,95440.63
2022-07-28T21:15:52.604Z,95441.63
2022-07-28T21:18:39.520Z,95433.13
2022-07-28T21:21:12.633Z,95436.78
2022-07-28T21:23:59.516Z,95442.00
2022-07-28T21:26:32.646Z,95439.47
2022-07-28T21:32:05.457Z,95442.22
2022-07-28T21:34:59.615Z,95450.97
2022-07-28T21:37:46.522Z,95455.41
2022-07-28T21:40:19.668Z,95451.25
2022-07-28T21:43:06.519Z,95463.50
2022-07-28T21:45:40.700Z,95453.25
2022-07-28T21:48:30.596Z,95460.19
2022-07-28T21:51:16.405Z,95453.34
2022-07-28T21:54:06.534Z,95454.22
2022-07-28T21:56:46.620Z,95466.34
2022-07-28T21:59:33.652Z,95468.94
2022-07-28T22:02:06.647Z,95463.88
2022-07-28T22:04:54.556Z,95469.03
2022-07-28T22:07:27.696Z,95467.44
2022-07-28T22:10:14.576Z,95480.44
2022-07-28T22:12:54.622Z,95480.47
2022-07-28T22:15:48.718Z,95479.69
2022-07-28T22:18:42.605Z,95477.19
2022-07-28T22:21:29.567Z,95475.56
2022-07-28T22:24:02.700Z,95476.50
2022-07-28T22:26:49.595Z,95475.75
2022-07-28T22:29:22.774Z,95474.84
2022-07-28T22:32:10.626Z,95464.53
2022-07-28T22:34:43.627Z,95472.25
2022-07-28T22:37:30.565Z,95469.66
2022-07-28T22:40:03.729Z,95471.41
2022-07-28T22:42:54.573Z,95471.50
2022-07-28T22:45:49.770Z,95471.50
2022-07-28T22:48:34.609Z,95463.06
2022-07-28T22:51:07.695Z,95462.22
2022-07-28T22:53:54.569Z,95466.59
2022-07-28T22:56:37.317Z,95461.44
2022-07-28T22:59:37.239Z,95463.94
2022-07-28T23:02:26.581Z,95464.91
2022-07-28T23:04:59.712Z,95462.31
2022-07-28T23:07:48.585Z,95461.47
2022-07-28T23:10:25.710Z,95464.91
2022-07-28T23:13:12.586Z,95463.16
2022-07-28T23:15:45.682Z,95462.25
2022-07-28T23:18:32.607Z,95458.84
2022-07-28T23:21:05.694Z,95452.78
2022-07-28T23:23:52.594Z,95453.66
2022-07-28T23:26:25.664Z,95459.69
2022-07-28T23:29:12.575Z,95452.78
2022-07-28T23:31:45.713Z,95445.13
2022-07-28T23:34:32.619Z,95442.53
2022-07-28T23:37:12.599Z,95438.38
2022-07-28T23:39:59.596Z,95441.09
2022-07-28T23:42:39.583Z,95448.06
2022-07-28T23:45:33.602Z,95448.19
2022-07-28T23:48:20.602Z,95445.72
2022-07-28T23:51:00.605Z,95445.00
2022-07-28T23:53:56.528Z,95443.44
2022-07-28T23:56:43.691Z,95446.25
2022-07-28T23:59:23.608Z,95447.28
